sensor_id;sensor_type;location;lat;lon;timestamp;P1;durP1;ratioP1;P2;durP2;ratioP2
13321;SDS011;6730;46.248;6.930;2023-09-07T00:01:29;5.03;;;4.55;;
13321;SDS011;6730;46.248;6.930;2023-09-07T00:03:56;5.53;;;4.95;;
13321;SDS011;6730;46.248;6.930;2023-09-07T00:06:21;5.07;;;4.68;;
13321;SDS011;6730;46.248;6.930;2023-09-07T00:08:47;5.43;;;4.82;;
13321;SDS011;6730;46.248;6.930;2023-09-07T00:11:13;5.95;;;5.18;;
13321;SDS011;6730;46.248;6.930;2023-09-07T00:13:38;5.38;;;4.88;;
13321;SDS011;6730;46.248;6.930;2023-09-07T00:16:04;7.38;;;5.57;;
13321;SDS011;6730;46.248;6.930;2023-09-07T00:18:31;5.10;;;4.70;;
13321;SDS011;6730;46.248;6.930;2023-09-07T00:20:58;5.72;;;5.22;;
13321;SDS011;6730;46.248;6.930;2023-09-07T00:23:24;5.60;;;5.10;;
13321;SDS011;6730;46.248;6.930;2023-09-07T00:25:50;5.65;;;5.13;;
13321;SDS011;6730;46.248;6.930;2023-09-07T00:28:16;6.85;;;5.28;;
13321;SDS011;6730;46.248;6.930;2023-09-07T00:30:41;5.95;;;5.38;;
13321;SDS011;6730;46.248;6.930;2023-09-07T00:33:07;6.93;;;4.97;;
13321;SDS011;6730;46.248;6.930;2023-09-07T00:35:33;5.45;;;4.90;;
13321;SDS011;6730;46.248;6.930;2023-09-07T00:37:59;4.88;;;4.47;;
13321;SDS011;6730;46.248;6.930;2023-09-07T00:40:25;6.03;;;5.53;;
13321;SDS011;6730;46.248;6.930;2023-09-07T00:42:51;6.00;;;5.40;;
13321;SDS011;6730;46.248;6.930;2023-09-07T00:45:17;5.50;;;5.10;;
13321;SDS011;6730;46.248;6.930;2023-09-07T00:47:43;5.85;;;5.35;;
13321;SDS011;6730;46.248;6.930;2023-09-07T00:50:09;5.60;;;4.97;;
13321;SDS011;6730;46.248;6.930;2023-09-07T00:52:39;5.93;;;5.43;;
13321;SDS011;6730;46.248;6.930;2023-09-07T00:55:07;5.95;;;5.38;;
13321;SDS011;6730;46.248;6.930;2023-09-07T00:57:34;6.38;;;5.47;;
13321;SDS011;6730;46.248;6.930;2023-09-07T01:00:02;5.70;;;4.93;;
13321;SDS011;6730;46.248;6.930;2023-09-07T01:02:31;5.40;;;4.90;;
13321;SDS011;6730;46.248;6.930;2023-09-07T01:04:56;5.95;;;5.32;;
13321;SDS011;6730;46.248;6.930;2023-09-07T01:07:29;5.90;;;5.30;;
13321;SDS011;6730;46.248;6.930;2023-09-07T01:10:11;6.47;;;5.88;;
13321;SDS011;6730;46.248;6.930;2023-09-07T01:12:39;6.78;;;5.22;;
13321;SDS011;6730;46.248;6.930;2023-09-07T01:15:05;5.95;;;5.45;;
13321;SDS011;6730;46.248;6.930;2023-09-07T01:17:32;6.72;;;6.13;;
13321;SDS011;6730;46.248;6.930;2023-09-07T01:19:59;5.55;;;5.05;;
13321;SDS011;6730;46.248;6.930;2023-09-07T01:22:32;5.85;;;5.35;;
13321;SDS011;6730;46.248;6.930;2023-09-07T01:24:58;6.13;;;5.63;;
13321;SDS011;6730;46.248;6.930;2023-09-07T01:27:27;5.72;;;5.10;;
13321;SDS011;6730;46.248;6.930;2023-09-07T01:29:53;6.38;;;5.78;;
13321;SDS011;6730;46.248;6.930;2023-09-07T01:32:18;5.80;;;5.20;;
13321;SDS011;6730;46.248;6.930;2023-09-07T01:34:44;7.38;;;5.32;;
13321;SDS011;6730;46.248;6.930;2023-09-07T01:37:13;5.72;;;5.22;;
13321;SDS011;6730;46.248;6.930;2023-09-07T01:39:38;5.93;;;5.35;;
13321;SDS011;6730;46.248;6.930;2023-09-07T01:42:04;5.72;;;5.22;;
13321;SDS011;6730;46.248;6.930;2023-09-07T01:44:30;5.95;;;5.45;;
13321;SDS011;6730;46.248;6.930;2023-09-07T01:46:55;5.70;;;5.20;;
13321;SDS011;6730;46.248;6.930;2023-09-07T01:49:21;6.30;;;5.53;;
13321;SDS011;6730;46.248;6.930;2023-09-07T01:51:47;6.03;;;5.53;;
13321;SDS011;6730;46.248;6.930;2023-09-07T01:54:12;5.72;;;5.22;;
13321;SDS011;6730;46.248;6.930;2023-09-07T01:56:38;5.88;;;5.38;;
13321;SDS011;6730;46.248;6.930;2023-09-07T01:59:09;6.07;;;5.47;;
13321;SDS011;6730;46.248;6.930;2023-09-07T02:01:35;6.18;;;5.60;;
13321;SDS011;6730;46.248;6.930;2023-09-07T02:04:02;5.80;;;5.28;;
13321;SDS011;6730;46.248;6.930;2023-09-07T02:06:28;6.45;;;5.88;;
13321;SDS011;6730;46.248;6.930;2023-09-07T02:08:54;6.35;;;5.63;;
13321;SDS011;6730;46.248;6.930;2023-09-07T02:11:20;5.90;;;5.40;;
13321;SDS011;6730;46.248;6.930;2023-09-07T02:13:46;5.50;;;5.00;;
13321;SDS011;6730;46.248;6.930;2023-09-07T02:16:13;6.22;;;5.72;;
13321;SDS011;6730;46.248;6.930;2023-09-07T02:18:38;6.60;;;5.63;;
13321;SDS011;6730;46.248;6.930;2023-09-07T02:21:12;6.22;;;5.72;;
13321;SDS011;6730;46.248;6.930;2023-09-07T02:23:38;5.63;;;5.20;;
13321;SDS011;6730;46.248;6.930;2023-09-07T02:26:04;6.65;;;5.55;;
13321;SDS011;6730;46.248;6.930;2023-09-07T02:28:30;6.38;;;5.28;;
13321;SDS011;6730;46.248;6.930;2023-09-07T02:31:02;6.28;;;5.75;;
13321;SDS011;6730;46.248;6.930;2023-09-07T02:33:31;6.78;;;5.68;;
13321;SDS011;6730;46.248;6.930;2023-09-07T02:35:57;6.70;;;6.10;;
13321;SDS011;6730;46.248;6.930;2023-09-07T02:38:23;6.38;;;5.78;;
13321;SDS011;6730;46.248;6.930;2023-09-07T02:40:49;5.63;;;5.13;;
13321;SDS011;6730;46.248;6.930;2023-09-07T02:43:15;5.60;;;5.10;;
13321;SDS011;6730;46.248;6.930;2023-09-07T02:45:41;6.22;;;5.72;;
13321;SDS011;6730;46.248;6.930;2023-09-07T02:48:07;6.03;;;5.45;;
13321;SDS011;6730;46.248;6.930;2023-09-07T02:50:33;6.18;;;5.63;;
13321;SDS011;6730;46.248;6.930;2023-09-07T02:52:59;5.95;;;5.35;;
13321;SDS011;6730;46.248;6.930;2023-09-07T02:55:26;7.30;;;6.70;;
13321;SDS011;6730;46.248;6.930;2023-09-07T02:57:52;5.85;;;5.35;;
13321;SDS011;6730;46.248;6.930;2023-09-07T03:00:18;6.35;;;5.85;;
13321;SDS011;6730;46.248;6.930;2023-09-07T03:02:44;6.10;;;5.57;;
13321;SDS011;6730;46.248;6.930;2023-09-07T03:05:14;6.45;;;5.85;;
13321;SDS011;6730;46.248;6.930;2023-09-07T03:07:40;6.55;;;5.95;;
13321;SDS011;6730;46.248;6.930;2023-09-07T03:10:05;6.32;;;5.72;;
13321;SDS011;6730;46.248;6.930;2023-09-07T03:12:31;6.60;;;6.00;;
13321;SDS011;6730;46.248;6.930;2023-09-07T03:14:59;6.53;;;5.93;;
13321;SDS011;6730;46.248;6.930;2023-09-07T03:17:28;6.15;;;5.55;;
13321;SDS011;6730;46.248;6.930;2023-09-07T03:19:54;6.18;;;5.57;;
13321;SDS011;6730;46.248;6.930;2023-09-07T03:22:20;6.28;;;5.70;;
13321;SDS011;6730;46.248;6.930;2023-09-07T03:24:46;7.10;;;5.85;;
13321;SDS011;6730;46.248;6.930;2023-09-07T03:27:12;5.80;;;5.22;;
13321;SDS011;6730;46.248;6.930;2023-09-07T03:29:37;5.90;;;5.22;;
13321;SDS011;6730;46.248;6.930;2023-09-07T03:32:04;5.78;;;5.28;;
13321;SDS011;6730;46.248;6.930;2023-09-07T03:34:31;6.47;;;5.88;;
13321;SDS011;6730;46.248;6.930;2023-09-07T03:36:57;6.53;;;5.93;;
13321;SDS011;6730;46.248;6.930;2023-09-07T03:39:23;8.07;;;5.65;;
13321;SDS011;6730;46.248;6.930;2023-09-07T03:41:48;6.30;;;5.45;;
13321;SDS011;6730;46.248;6.930;2023-09-07T03:44:14;6.97;;;6.30;;
13321;SDS011;6730;46.248;6.930;2023-09-07T03:46:40;6.03;;;5.47;;
13321;SDS011;6730;46.248;6.930;2023-09-07T03:49:06;6.18;;;5.57;;
13321;SDS011;6730;46.248;6.930;2023-09-07T03:51:31;6.32;;;5.72;;
13321;SDS011;6730;46.248;6.930;2023-09-07T03:53:57;6.72;;;5.68;;
13321;SDS011;6730;46.248;6.930;2023-09-07T03:56:24;6.38;;;5.72;;
13321;SDS011;6730;46.248;6.930;2023-09-07T03:58:49;6.70;;;6.10;;
13321;SDS011;6730;46.248;6.930;2023-09-07T04:01:15;6.75;;;6.05;;
13321;SDS011;6730;46.248;6.930;2023-09-07T04:03:41;6.40;;;5.88;;
13321;SDS011;6730;46.248;6.930;2023-09-07T04:06:06;6.72;;;6.10;;
13321;SDS011;6730;46.248;6.930;2023-09-07T04:08:32;6.63;;;6.03;;
13321;SDS011;6730;46.248;6.930;2023-09-07T04:11:02;6.38;;;5.80;;
13321;SDS011;6730;46.248;6.930;2023-09-07T04:13:31;6.45;;;5.82;;
13321;SDS011;6730;46.248;6.930;2023-09-07T04:15:57;6.90;;;6.30;;
13321;SDS011;6730;46.248;6.930;2023-09-07T04:18:23;7.15;;;6.03;;
13321;SDS011;6730;46.248;6.930;2023-09-07T04:20:49;6.05;;;5.50;;
13321;SDS011;6730;46.248;6.930;2023-09-07T04:23:15;6.50;;;6.00;;
13321;SDS011;6730;46.248;6.930;2023-09-07T04:25:40;6.13;;;5.53;;
13321;SDS011;6730;46.248;6.930;2023-09-07T04:28:07;8.70;;;6.05;;
13321;SDS011;6730;46.248;6.930;2023-09-07T04:30:39;6.32;;;5.72;;
13321;SDS011;6730;46.248;6.930;2023-09-07T04:33:06;6.30;;;5.80;;
13321;SDS011;6730;46.248;6.930;2023-09-07T04:35:32;6.80;;;6.20;;
13321;SDS011;6730;46.248;6.930;2023-09-07T04:37:58;7.07;;;5.72;;
13321;SDS011;6730;46.248;6.930;2023-09-07T04:40:24;6.68;;;6.07;;
13321;SDS011;6730;46.248;6.930;2023-09-07T04:42:50;7.38;;;6.70;;
13321;SDS011;6730;46.248;6.930;2023-09-07T04:45:16;6.20;;;5.70;;
13321;SDS011;6730;46.248;6.930;2023-09-07T04:47:42;6.43;;;5.82;;
13321;SDS011;6730;46.248;6.930;2023-09-07T04:50:08;10.32;;;6.20;;
13321;SDS011;6730;46.248;6.930;2023-09-07T04:52:34;6.80;;;5.85;;
13321;SDS011;6730;46.248;6.930;2023-09-07T04:55:00;6.70;;;6.10;;
13321;SDS011;6730;46.248;6.930;2023-09-07T04:57:26;6.93;;;6.25;;
13321;SDS011;6730;46.248;6.930;2023-09-07T04:59:52;6.20;;;5.70;;
13321;SDS011;6730;46.248;6.930;2023-09-07T05:02:17;6.45;;;5.93;;
13321;SDS011;6730;46.248;6.930;2023-09-07T05:04:43;6.05;;;5.55;;
13321;SDS011;6730;46.248;6.930;2023-09-07T05:07:10;6.90;;;6.32;;
13321;SDS011;6730;46.248;6.930;2023-09-07T05:09:35;6.03;;;5.53;;
13321;SDS011;6730;46.248;6.930;2023-09-07T05:12:01;6.72;;;6.13;;
13321;SDS011;6730;46.248;6.930;2023-09-07T05:14:29;6.45;;;5.85;;
13321;SDS011;6730;46.248;6.930;2023-09-07T05:16:55;9.25;;;6.10;;
13321;SDS011;6730;46.248;6.930;2023-09-07T05:19:23;6.20;;;5.60;;
13321;SDS011;6730;46.248;6.930;2023-09-07T05:21:49;6.47;;;5.90;;
13321;SDS011;6730;46.248;6.930;2023-09-07T05:24:15;7.38;;;5.95;;
13321;SDS011;6730;46.248;6.930;2023-09-07T05:26:43;6.53;;;5.93;;
13321;SDS011;6730;46.248;6.930;2023-09-07T05:29:10;6.10;;;5.60;;
13321;SDS011;6730;46.248;6.930;2023-09-07T05:31:37;7.53;;;6.05;;
13321;SDS011;6730;46.248;6.930;2023-09-07T05:34:03;8.07;;;5.80;;
13321;SDS011;6730;46.248;6.930;2023-09-07T05:36:29;6.88;;;6.28;;
13321;SDS011;6730;46.248;6.930;2023-09-07T05:38:55;6.53;;;5.90;;
13321;SDS011;6730;46.248;6.930;2023-09-07T05:41:20;6.40;;;5.80;;
13321;SDS011;6730;46.248;6.930;2023-09-07T05:43:46;6.55;;;5.88;;
13321;SDS011;6730;46.248;6.930;2023-09-07T05:46:11;6.63;;;6.03;;
13321;SDS011;6730;46.248;6.930;2023-09-07T05:48:37;8.48;;;6.22;;
13321;SDS011;6730;46.248;6.930;2023-09-07T05:51:03;7.35;;;6.38;;
13321;SDS011;6730;46.248;6.930;2023-09-07T05:53:29;6.60;;;6.00;;
13321;SDS011;6730;46.248;6.930;2023-09-07T05:55:54;6.63;;;6.03;;
13321;SDS011;6730;46.248;6.930;2023-09-07T05:58:20;6.97;;;6.28;;
13321;SDS011;6730;46.248;6.930;2023-09-07T06:00:46;7.13;;;6.53;;
13321;SDS011;6730;46.248;6.930;2023-09-07T06:03:12;7.07;;;6.40;;
13321;SDS011;6730;46.248;6.930;2023-09-07T06:05:37;7.10;;;6.40;;
13321;SDS011;6730;46.248;6.930;2023-09-07T06:08:04;10.55;;;6.65;;
13321;SDS011;6730;46.248;6.930;2023-09-07T06:10:33;7.47;;;6.78;;
13321;SDS011;6730;46.248;6.930;2023-09-07T06:12:59;8.07;;;6.32;;
13321;SDS011;6730;46.248;6.930;2023-09-07T06:15:25;7.40;;;6.70;;
13321;SDS011;6730;46.248;6.930;2023-09-07T06:17:52;7.60;;;6.90;;
13321;SDS011;6730;46.248;6.930;2023-09-07T06:20:17;7.05;;;6.35;;
13321;SDS011;6730;46.248;6.930;2023-09-07T06:22:44;7.30;;;6.70;;
13321;SDS011;6730;46.248;6.930;2023-09-07T06:25:10;7.15;;;6.50;;
13321;SDS011;6730;46.248;6.930;2023-09-07T06:27:36;7.10;;;6.47;;
13321;SDS011;6730;46.248;6.930;2023-09-07T06:30:01;7.10;;;6.53;;
13321;SDS011;6730;46.248;6.930;2023-09-07T06:32:27;7.45;;;6.13;;
13321;SDS011;6730;46.248;6.930;2023-09-07T06:34:53;6.57;;;5.97;;
13321;SDS011;6730;46.248;6.930;2023-09-07T06:37:19;7.32;;;6.60;;
13321;SDS011;6730;46.248;6.930;2023-09-07T06:39:44;7.22;;;5.97;;
13321;SDS011;6730;46.248;6.930;2023-09-07T06:42:10;7.15;;;6.55;;
13321;SDS011;6730;46.248;6.930;2023-09-07T06:44:36;6.70;;;6.10;;
13321;SDS011;6730;46.248;6.930;2023-09-07T06:47:02;6.70;;;6.10;;
13321;SDS011;6730;46.248;6.930;2023-09-07T06:49:27;6.63;;;6.03;;
13321;SDS011;6730;46.248;6.930;2023-09-07T06:51:54;7.50;;;6.72;;
13321;SDS011;6730;46.248;6.930;2023-09-07T06:54:21;6.65;;;6.07;;
13321;SDS011;6730;46.248;6.930;2023-09-07T06:56:47;6.97;;;6.38;;
13321;SDS011;6730;46.248;6.930;2023-09-07T06:59:13;6.60;;;5.93;;
13321;SDS011;6730;46.248;6.930;2023-09-07T07:01:39;6.55;;;5.82;;
13321;SDS011;6730;46.248;6.930;2023-09-07T07:04:05;6.40;;;5.75;;
13321;SDS011;6730;46.248;6.930;2023-09-07T07:06:31;6.43;;;5.88;;
13321;SDS011;6730;46.248;6.930;2023-09-07T07:09:00;9.07;;;6.15;;
13321;SDS011;6730;46.248;6.930;2023-09-07T07:11:25;8.48;;;6.00;;
13321;SDS011;6730;46.248;6.930;2023-09-07T07:13:51;5.88;;;5.38;;
13321;SDS011;6730;46.248;6.930;2023-09-07T07:16:16;5.70;;;5.10;;
13321;SDS011;6730;46.248;6.930;2023-09-07T07:18:42;10.38;;;6.72;;
13321;SDS011;6730;46.248;6.930;2023-09-07T07:21:08;6.88;;;6.18;;
13321;SDS011;6730;46.248;6.930;2023-09-07T07:23:34;6.25;;;5.65;;
13321;SDS011;6730;46.248;6.930;2023-09-07T07:26:00;6.70;;;6.00;;
13321;SDS011;6730;46.248;6.930;2023-09-07T07:28:26;7.25;;;5.78;;
13321;SDS011;6730;46.248;6.930;2023-09-07T07:30:51;7.20;;;6.18;;
13321;SDS011;6730;46.248;6.930;2023-09-07T07:33:18;7.07;;;6.20;;
13321;SDS011;6730;46.248;6.930;2023-09-07T07:35:44;7.35;;;6.47;;
13321;SDS011;6730;46.248;6.930;2023-09-07T07:38:11;9.05;;;6.45;;
13321;SDS011;6730;46.248;6.930;2023-09-07T07:40:38;6.78;;;6.05;;
13321;SDS011;6730;46.248;6.930;2023-09-07T07:43:04;7.65;;;6.47;;
13321;SDS011;6730;46.248;6.930;2023-09-07T07:45:31;6.35;;;5.70;;
13321;SDS011;6730;46.248;6.930;2023-09-07T07:48:01;6.97;;;5.78;;
13321;SDS011;6730;46.248;6.930;2023-09-07T07:50:27;7.95;;;6.15;;
13321;SDS011;6730;46.248;6.930;2023-09-07T07:52:52;7.85;;;6.32;;
13321;SDS011;6730;46.248;6.930;2023-09-07T07:55:18;7.65;;;5.97;;
13321;SDS011;6730;46.248;6.930;2023-09-07T07:57:44;6.97;;;6.28;;
13321;SDS011;6730;46.248;6.930;2023-09-07T08:00:10;7.20;;;6.00;;
13321;SDS011;6730;46.248;6.930;2023-09-07T08:02:36;6.38;;;5.70;;
13321;SDS011;6730;46.248;6.930;2023-09-07T08:05:03;8.38;;;5.95;;
13321;SDS011;6730;46.248;6.930;2023-09-07T08:07:29;7.35;;;6.65;;
13321;SDS011;6730;46.248;6.930;2023-09-07T08:09:55;6.72;;;6.20;;
13321;SDS011;6730;46.248;6.930;2023-09-07T08:12:20;8.13;;;6.30;;
13321;SDS011;6730;46.248;6.930;2023-09-07T08:14:46;9.90;;;6.25;;
13321;SDS011;6730;46.248;6.930;2023-09-07T08:17:14;8.48;;;6.40;;
13321;SDS011;6730;46.248;6.930;2023-09-07T08:19:40;7.43;;;6.72;;
13321;SDS011;6730;46.248;6.930;2023-09-07T08:22:09;7.18;;;6.60;;
13321;SDS011;6730;46.248;6.930;2023-09-07T08:24:37;8.05;;;7.03;;
13321;SDS011;6730;46.248;6.930;2023-09-07T08:27:03;7.20;;;6.50;;
13321;SDS011;6730;46.248;6.930;2023-09-07T08:29:29;7.40;;;6.47;;
13321;SDS011;6730;46.248;6.930;2023-09-07T08:31:57;6.65;;;6.15;;
13321;SDS011;6730;46.248;6.930;2023-09-07T08:34:27;6.93;;;6.22;;
13321;SDS011;6730;46.248;6.930;2023-09-07T08:36:56;6.97;;;6.30;;
13321;SDS011;6730;46.248;6.930;2023-09-07T08:39:24;7.80;;;6.43;;
13321;SDS011;6730;46.248;6.930;2023-09-07T08:41:49;8.65;;;6.55;;
13321;SDS011;6730;46.248;6.930;2023-09-07T08:44:16;9.02;;;6.68;;
13321;SDS011;6730;46.248;6.930;2023-09-07T08:46:45;7.63;;;6.70;;
13321;SDS011;6730;46.248;6.930;2023-09-07T08:49:14;8.60;;;6.40;;
13321;SDS011;6730;46.248;6.930;2023-09-07T08:51:44;6.70;;;6.05;;
13321;SDS011;6730;46.248;6.930;2023-09-07T08:54:12;7.53;;;6.82;;
13321;SDS011;6730;46.248;6.930;2023-09-07T08:56:38;7.60;;;6.35;;
13321;SDS011;6730;46.248;6.930;2023-09-07T08:59:04;8.55;;;6.65;;
13321;SDS011;6730;46.248;6.930;2023-09-07T09:01:30;7.45;;;6.53;;
13321;SDS011;6730;46.248;6.930;2023-09-07T09:03:56;9.48;;;6.78;;
13321;SDS011;6730;46.248;6.930;2023-09-07T09:06:23;8.25;;;6.90;;
13321;SDS011;6730;46.248;6.930;2023-09-07T09:08:55;7.57;;;6.82;;
13321;SDS011;6730;46.248;6.930;2023-09-07T09:11:22;6.93;;;6.25;;
13321;SDS011;6730;46.248;6.930;2023-09-07T09:13:50;7.63;;;7.03;;
13321;SDS011;6730;46.248;6.930;2023-09-07T09:16:20;6.70;;;6.20;;
13321;SDS011;6730;46.248;6.930;2023-09-07T09:18:56;7.90;;;7.03;;
13321;SDS011;6730;46.248;6.930;2023-09-07T09:21:22;11.98;;;6.65;;
13321;SDS011;6730;46.248;6.930;2023-09-07T09:23:50;8.20;;;6.00;;
13321;SDS011;6730;46.248;6.930;2023-09-07T09:26:20;7.60;;;6.72;;
13321;SDS011;6730;46.248;6.930;2023-09-07T09:28:48;7.95;;;7.15;;
13321;SDS011;6730;46.248;6.930;2023-09-07T09:31:15;9.07;;;7.28;;
13321;SDS011;6730;46.248;6.930;2023-09-07T09:33:42;7.50;;;6.90;;
13321;SDS011;6730;46.248;6.930;2023-09-07T09:36:12;6.88;;;6.03;;
13321;SDS011;6730;46.248;6.930;2023-09-07T09:38:38;7.88;;;6.80;;
13321;SDS011;6730;46.248;6.930;2023-09-07T09:41:05;9.90;;;6.70;;
13321;SDS011;6730;46.248;6.930;2023-09-07T09:43:31;7.60;;;6.82;;
13321;SDS011;6730;46.248;6.930;2023-09-07T09:45:56;9.20;;;7.25;;
13321;SDS011;6730;46.248;6.930;2023-09-07T09:48:24;7.65;;;6.95;;
13321;SDS011;6730;46.248;6.930;2023-09-07T09:50:52;7.32;;;6.60;;
13321;SDS011;6730;46.248;6.930;2023-09-07T09:53:19;7.32;;;6.63;;
13321;SDS011;6730;46.248;6.930;2023-09-07T09:55:49;7.72;;;7.03;;
13321;SDS011;6730;46.248;6.930;2023-09-07T09:58:17;7.18;;;6.45;;
13321;SDS011;6730;46.248;6.930;2023-09-07T10:00:43;7.97;;;7.25;;
13321;SDS011;6730;46.248;6.930;2023-09-07T10:05:53;7.97;;;6.95;;
13321;SDS011;6730;46.248;6.930;2023-09-07T10:08:19;7.13;;;6.57;;
13321;SDS011;6730;46.248;6.930;2023-09-07T10:10:48;8.50;;;7.28;;
13321;SDS011;6730;46.248;6.930;2023-09-07T10:13:15;7.75;;;6.80;;
13321;SDS011;6730;46.248;6.930;2023-09-07T10:15:41;10.15;;;7.25;;
13321;SDS011;6730;46.248;6.930;2023-09-07T10:18:14;8.05;;;6.57;;
13321;SDS011;6730;46.248;6.930;2023-09-07T10:23:21;7.40;;;6.35;;
13321;SDS011;6730;46.248;6.930;2023-09-07T10:25:49;7.32;;;6.45;;
13321;SDS011;6730;46.248;6.930;2023-09-07T10:28:25;8.50;;;6.90;;
13321;SDS011;6730;46.248;6.930;2023-09-07T10:30:57;7.07;;;6.38;;
13321;SDS011;6730;46.248;6.930;2023-09-07T10:33:26;7.05;;;6.47;;
13321;SDS011;6730;46.248;6.930;2023-09-07T10:35:54;6.50;;;6.00;;
13321;SDS011;6730;46.248;6.930;2023-09-07T10:38:19;8.57;;;6.35;;
13321;SDS011;6730;46.248;6.930;2023-09-07T10:40:47;7.20;;;6.45;;
13321;SDS011;6730;46.248;6.930;2023-09-07T10:43:13;9.13;;;7.10;;
13321;SDS011;6730;46.248;6.930;2023-09-07T10:45:39;6.82;;;6.30;;
13321;SDS011;6730;46.248;6.930;2023-09-07T10:48:05;7.40;;;6.57;;
13321;SDS011;6730;46.248;6.930;2023-09-07T10:50:41;8.75;;;7.85;;
13321;SDS011;6730;46.248;6.930;2023-09-07T10:53:14;7.93;;;7.22;;
13321;SDS011;6730;46.248;6.930;2023-09-07T10:55:40;8.02;;;7.20;;
13321;SDS011;6730;46.248;6.930;2023-09-07T10:58:09;10.70;;;7.35;;
13321;SDS011;6730;46.248;6.930;2023-09-07T11:00:35;7.43;;;6.55;;
13321;SDS011;6730;46.248;6.930;2023-09-07T11:03:08;8.27;;;7.28;;
13321;SDS011;6730;46.248;6.930;2023-09-07T11:05:35;7.38;;;6.65;;
13321;SDS011;6730;46.248;6.930;2023-09-07T11:08:03;7.45;;;6.63;;
13321;SDS011;6730;46.248;6.930;2023-09-07T11:10:34;7.07;;;6.35;;
13321;SDS011;6730;46.248;6.930;2023-09-07T11:13:02;7.93;;;7.18;;
13321;SDS011;6730;46.248;6.930;2023-09-07T11:15:32;7.60;;;6.90;;
13321;SDS011;6730;46.248;6.930;2023-09-07T11:18:07;8.10;;;7.40;;
13321;SDS011;6730;46.248;6.930;2023-09-07T11:20:37;8.15;;;7.45;;
13321;SDS011;6730;46.248;6.930;2023-09-07T11:23:06;8.00;;;7.30;;
13321;SDS011;6730;46.248;6.930;2023-09-07T11:25:36;9.20;;;7.05;;
13321;SDS011;6730;46.248;6.930;2023-09-07T11:28:05;7.53;;;6.93;;
13321;SDS011;6730;46.248;6.930;2023-09-07T11:30:32;8.75;;;6.85;;
13321;SDS011;6730;46.248;6.930;2023-09-07T11:35:27;7.90;;;7.03;;
13321;SDS011;6730;46.248;6.930;2023-09-07T11:37:53;7.60;;;6.75;;
13321;SDS011;6730;46.248;6.930;2023-09-07T11:40:19;8.10;;;7.38;;
13321;SDS011;6730;46.248;6.930;2023-09-07T11:42:44;9.25;;;6.85;;
13321;SDS011;6730;46.248;6.930;2023-09-07T11:45:10;6.70;;;6.20;;
13321;SDS011;6730;46.248;6.930;2023-09-07T11:47:38;7.05;;;6.40;;
13321;SDS011;6730;46.248;6.930;2023-09-07T11:50:04;7.32;;;6.72;;
13321;SDS011;6730;46.248;6.930;2023-09-07T11:52:31;7.93;;;7.22;;
13321;SDS011;6730;46.248;6.930;2023-09-07T11:54:57;7.60;;;6.63;;
13321;SDS011;6730;46.248;6.930;2023-09-07T11:57:23;7.53;;;6.80;;
13321;SDS011;6730;46.248;6.930;2023-09-07T11:59:49;7.65;;;7.05;;
13321;SDS011;6730;46.248;6.930;2023-09-07T12:02:15;7.25;;;6.75;;
13321;SDS011;6730;46.248;6.930;2023-09-07T12:04:42;7.13;;;6.43;;
13321;SDS011;6730;46.248;6.930;2023-09-07T12:07:09;9.95;;;6.88;;
13321;SDS011;6730;46.248;6.930;2023-09-07T12:09:35;6.72;;;6.22;;
13321;SDS011;6730;46.248;6.930;2023-09-07T12:12:01;7.03;;;6.43;;
13321;SDS011;6730;46.248;6.930;2023-09-07T12:14:28;7.82;;;7.03;;
13321;SDS011;6730;46.248;6.930;2023-09-07T12:16:54;8.02;;;7.22;;
13321;SDS011;6730;46.248;6.930;2023-09-07T12:19:20;7.90;;;7.15;;
13321;SDS011;6730;46.248;6.930;2023-09-07T12:21:50;9.32;;;7.72;;
13321;SDS011;6730;46.248;6.930;2023-09-07T12:24:16;7.70;;;6.93;;
13321;SDS011;6730;46.248;6.930;2023-09-07T12:26:42;7.88;;;7.13;;
13321;SDS011;6730;46.248;6.930;2023-09-07T12:29:08;7.97;;;7.28;;
13321;SDS011;6730;46.248;6.930;2023-09-07T12:31:33;7.68;;;7.03;;
13321;SDS011;6730;46.248;6.930;2023-09-07T12:33:59;7.68;;;7.00;;
13321;SDS011;6730;46.248;6.930;2023-09-07T12:36:25;8.77;;;6.47;;
13321;SDS011;6730;46.248;6.930;2023-09-07T12:38:54;7.47;;;6.78;;
13321;SDS011;6730;46.248;6.930;2023-09-07T12:41:26;7.18;;;6.47;;
13321;SDS011;6730;46.248;6.930;2023-09-07T12:43:55;11.07;;;7.43;;
13321;SDS011;6730;46.248;6.930;2023-09-07T12:46:21;7.15;;;6.55;;
13321;SDS011;6730;46.248;6.930;2023-09-07T12:48:47;8.20;;;7.28;;
13321;SDS011;6730;46.248;6.930;2023-09-07T12:51:12;7.78;;;7.07;;
13321;SDS011;6730;46.248;6.930;2023-09-07T12:53:38;7.40;;;6.65;;
13321;SDS011;6730;46.248;6.930;2023-09-07T12:56:04;7.18;;;6.57;;
13321;SDS011;6730;46.248;6.930;2023-09-07T12:58:30;8.13;;;7.05;;
13321;SDS011;6730;46.248;6.930;2023-09-07T13:00:56;7.45;;;6.65;;
13321;SDS011;6730;46.248;6.930;2023-09-07T13:03:22;8.40;;;7.35;;
13321;SDS011;6730;46.248;6.930;2023-09-07T13:05:48;9.05;;;7.07;;
13321;SDS011;6730;46.248;6.930;2023-09-07T13:08:14;7.68;;;6.93;;
13321;SDS011;6730;46.248;6.930;2023-09-07T13:10:40;8.80;;;7.10;;
13321;SDS011;6730;46.248;6.930;2023-09-07T13:13:06;7.00;;;6.40;;
13321;SDS011;6730;46.248;6.930;2023-09-07T13:15:32;7.88;;;6.72;;
13321;SDS011;6730;46.248;6.930;2023-09-07T13:17:58;7.30;;;6.30;;
13321;SDS011;6730;46.248;6.930;2023-09-07T13:20:23;8.93;;;6.20;;
13321;SDS011;6730;46.248;6.930;2023-09-07T13:22:49;7.90;;;7.10;;
13321;SDS011;6730;46.248;6.930;2023-09-07T13:25:15;7.57;;;6.78;;
13321;SDS011;6730;46.248;6.930;2023-09-07T13:27:40;9.57;;;6.45;;
13321;SDS011;6730;46.248;6.930;2023-09-07T13:30:06;6.88;;;6.38;;
13321;SDS011;6730;46.248;6.930;2023-09-07T13:32:33;9.77;;;6.55;;
13321;SDS011;6730;46.248;6.930;2023-09-07T13:34:59;8.38;;;6.97;;
13321;SDS011;6730;46.248;6.930;2023-09-07T13:37:25;8.80;;;7.10;;
13321;SDS011;6730;46.248;6.930;2023-09-07T13:39:51;7.30;;;6.70;;
13321;SDS011;6730;46.248;6.930;2023-09-07T13:42:16;7.25;;;6.55;;
13321;SDS011;6730;46.248;6.930;2023-09-07T13:44:42;8.60;;;6.50;;
13321;SDS011;6730;46.248;6.930;2023-09-07T13:47:10;7.57;;;6.60;;
13321;SDS011;6730;46.248;6.930;2023-09-07T13:49:36;7.10;;;6.45;;
13321;SDS011;6730;46.248;6.930;2023-09-07T13:52:01;7.10;;;6.45;;
13321;SDS011;6730;46.248;6.930;2023-09-07T13:54:28;9.60;;;6.15;;
13321;SDS011;6730;46.248;6.930;2023-09-07T13:56:54;8.25;;;6.38;;
13321;SDS011;6730;46.248;6.930;2023-09-07T13:59:19;6.85;;;6.32;;
13321;SDS011;6730;46.248;6.930;2023-09-07T14:01:45;7.15;;;6.55;;
13321;SDS011;6730;46.248;6.930;2023-09-07T14:04:11;7.25;;;6.57;;
13321;SDS011;6730;46.248;6.930;2023-09-07T14:06:37;7.35;;;6.65;;
13321;SDS011;6730;46.248;6.930;2023-09-07T14:09:02;8.27;;;6.70;;
13321;SDS011;6730;46.248;6.930;2023-09-07T14:11:29;7.68;;;6.95;;
13321;SDS011;6730;46.248;6.930;2023-09-07T14:13:55;7.97;;;6.38;;
13321;SDS011;6730;46.248;6.930;2023-09-07T14:16:21;6.57;;;5.97;;
13321;SDS011;6730;46.248;6.930;2023-09-07T14:18:47;6.93;;;6.30;;
13321;SDS011;6730;46.248;6.930;2023-09-07T14:21:14;8.02;;;7.28;;
13321;SDS011;6730;46.248;6.930;2023-09-07T14:23:41;6.70;;;6.20;;
13321;SDS011;6730;46.248;6.930;2023-09-07T14:26:07;7.32;;;6.63;;
13321;SDS011;6730;46.248;6.930;2023-09-07T14:28:33;7.78;;;6.25;;
13321;SDS011;6730;46.248;6.930;2023-09-07T14:30:59;7.93;;;6.10;;
13321;SDS011;6730;46.248;6.930;2023-09-07T14:33:28;6.88;;;6.38;;
13321;SDS011;6730;46.248;6.930;2023-09-07T14:35:54;7.80;;;6.80;;
13321;SDS011;6730;46.248;6.930;2023-09-07T14:38:20;6.97;;;6.43;;
13321;SDS011;6730;46.248;6.930;2023-09-07T14:40:46;7.35;;;6.65;;
13321;SDS011;6730;46.248;6.930;2023-09-07T14:43:14;7.50;;;6.53;;
13321;SDS011;6730;46.248;6.930;2023-09-07T14:45:39;7.50;;;6.43;;
13321;SDS011;6730;46.248;6.930;2023-09-07T14:48:05;7.05;;;6.45;;
13321;SDS011;6730;46.248;6.930;2023-09-07T14:50:31;8.32;;;6.10;;
13321;SDS011;6730;46.248;6.930;2023-09-07T14:52:57;6.88;;;6.28;;
13321;SDS011;6730;46.248;6.930;2023-09-07T14:55:22;7.00;;;6.22;;
13321;SDS011;6730;46.248;6.930;2023-09-07T14:57:48;7.82;;;6.38;;
13321;SDS011;6730;46.248;6.930;2023-09-07T15:00:14;7.55;;;6.78;;
13321;SDS011;6730;46.248;6.930;2023-09-07T15:02:39;7.25;;;6.55;;
13321;SDS011;6730;46.248;6.930;2023-09-07T15:05:05;7.07;;;6.45;;